createdAt,value
2022-12-11T00:01:22.012Z,72.30
2022-12-11T00:03:50.468Z,72.20
2022-12-11T00:06:21.749Z,72.10
2022-12-11T00:08:52.545Z,72.10
2022-12-11T00:11:21.564Z,72.10
2022-12-11T00:13:49.835Z,72.10
2022-12-11T00:16:21.323Z,72.10
2022-12-11T00:18:53.403Z,72.10
2022-12-11T00:21:21.588Z,71.90
2022-12-11T00:23:49.735Z,71.90
2022-12-11T00:26:17.989Z,71.90
2022-12-11T00:28:46.712Z,71.90
2022-12-11T00:31:16.986Z,71.90
2022-12-11T00:33:46.090Z,72.00
2022-12-11T00:36:17.782Z,71.70
2022-12-11T00:38:46.199Z,71.80
2022-12-11T00:41:17.776Z,72.00
2022-12-11T00:43:46.215Z,72.00
2022-12-11T00:46:15.405Z,72.00
2022-12-11T00:48:43.797Z,72.00
2022-12-11T00:51:12.289Z,72.10
2022-12-11T00:53:41.854Z,72.00
2022-12-11T00:56:15.168Z,72.00
2022-12-11T00:58:43.486Z,72.10
2022-12-11T01:01:14.088Z,72.10
2022-12-11T01:03:42.415Z,72.00
2022-12-11T01:06:15.136Z,71.80
2022-12-11T01:08:45.075Z,71.70
2022-12-11T01:11:14.721Z,71.70
2022-12-11T01:13:44.080Z,71.60
2022-12-11T01:16:14.802Z,71.60
2022-12-11T01:18:43.624Z,71.60
2022-12-11T01:21:14.436Z,71.70
2022-12-11T01:23:47.046Z,71.60
2022-12-11T01:26:16.732Z,71.60
2022-12-11T01:28:45.313Z,71.60
2022-12-11T01:31:16.444Z,71.60
2022-12-11T01:33:44.652Z,71.70
2022-12-11T01:36:15.535Z,71.80
2022-12-11T01:38:45.549Z,71.70
2022-12-11T01:41:14.197Z,71.80
2022-12-11T01:44:02.405Z,71.60
2022-12-11T01:46:32.537Z,71.60
2022-12-11T01:49:02.122Z,71.40
2022-12-11T01:51:32.287Z,71.30
2022-12-11T01:54:05.547Z,71.50
2022-12-11T01:56:37.103Z,71.50
2022-12-11T01:59:07.691Z,71.40
2022-12-11T02:01:39.467Z,71.20
2022-12-11T02:04:10.904Z,70.90
2022-12-11T02:06:40.919Z,71.00
2022-12-11T02:09:13.258Z,71.00
2022-12-11T02:11:51.949Z,71.00
2022-12-11T02:14:30.464Z,71.10
2022-12-11T02:17:04.928Z,71.20
2022-12-11T02:19:56.038Z,70.90
2022-12-11T02:22:38.187Z,71.10
2022-12-11T02:25:16.685Z,71.20
2022-12-11T02:27:48.757Z,71.10
2022-12-11T02:30:18.581Z,71.20
2022-12-11T02:32:52.042Z,71.20
2022-12-11T02:35:23.920Z,71.20
2022-12-11T02:37:57.929Z,71.20
2022-12-11T02:40:31.631Z,71.20
2022-12-11T02:43:03.913Z,71.10
2022-12-11T02:45:35.182Z,71.10
2022-12-11T02:48:06.647Z,70.90
2022-12-11T02:50:37.131Z,70.90
2022-12-11T02:53:07.756Z,71.00
2022-12-11T02:55:37.794Z,70.90
2022-12-11T02:58:10.272Z,70.70
2022-12-11T03:00:39.842Z,70.60
2022-12-11T03:03:09.494Z,70.70
2022-12-11T03:05:37.719Z,70.70
2022-12-11T03:08:06.583Z,70.70
2022-12-11T03:10:35.092Z,70.90
2022-12-11T03:13:04.740Z,70.80
2022-12-11T03:15:40.985Z,70.80
2022-12-11T03:18:16.648Z,70.60
2022-12-11T03:20:47.960Z,70.70
2022-12-11T03:23:22.203Z,70.80
2022-12-11T03:25:55.345Z,70.60
2022-12-11T03:28:30.166Z,70.70
2022-12-11T03:31:04.292Z,70.80
2022-12-11T03:33:37.567Z,70.90
2022-12-11T03:36:09.512Z,70.90
2022-12-11T03:38:42.636Z,71.00
2022-12-11T03:41:14.081Z,71.00
2022-12-11T03:43:42.892Z,71.10
2022-12-11T03:46:13.568Z,71.20
2022-12-11T03:48:46.016Z,71.20
2022-12-11T03:51:15.016Z,71.00
2022-12-11T03:53:44.194Z,71.00
2022-12-11T03:56:14.615Z,71.10
2022-12-11T03:58:43.944Z,71.00
2022-12-11T04:01:12.518Z,71.10
2022-12-11T04:03:40.714Z,71.10
2022-12-11T04:06:10.436Z,71.30
2022-12-11T04:08:38.707Z,71.30
2022-12-11T04:11:24.772Z,71.50
2022-12-11T04:14:06.917Z,71.50
2022-12-11T04:16:35.052Z,71.60
2022-12-11T04:19:20.903Z,71.50
2022-12-11T04:22:08.086Z,71.40
2022-12-11T04:24:36.345Z,71.20
2022-12-11T04:27:04.699Z,71.30
2022-12-11T04:29:32.890Z,71.40
2022-12-11T04:32:01.074Z,71.40
2022-12-11T04:34:29.423Z,71.50
2022-12-11T04:36:58.960Z,71.40
2022-12-11T04:39:27.224Z,71.50
2022-12-11T04:41:55.408Z,71.30
2022-12-11T04:44:23.622Z,71.20
2022-12-11T04:46:51.824Z,71.00
2022-12-11T04:49:20.083Z,71.10
2022-12-11T04:51:48.267Z,71.10
2022-12-11T04:54:17.905Z,71.10
2022-12-11T04:56:46.154Z,71.10
2022-12-11T04:59:14.805Z,71.10
2022-12-11T05:01:43.071Z,71.00
2022-12-11T05:04:11.365Z,70.90
2022-12-11T05:06:39.736Z,70.80
2022-12-11T05:09:11.749Z,70.80
2022-12-11T05:11:42.078Z,70.80
2022-12-11T05:14:10.254Z,70.80
2022-12-11T05:16:38.448Z,71.20
2022-12-11T05:19:06.754Z,70.90
2022-12-11T05:21:35.451Z,70.80
2022-12-11T05:24:04.265Z,70.80
2022-12-11T05:26:32.475Z,70.70
2022-12-11T05:29:02.016Z,70.60
2022-12-11T05:31:30.367Z,70.60
2022-12-11T05:33:58.648Z,70.60
2022-12-11T05:36:29.121Z,70.50
2022-12-11T05:38:58.322Z,70.50
2022-12-11T05:41:28.770Z,70.50
2022-12-11T05:43:57.399Z,70.60
2022-12-11T05:46:29.388Z,70.50
2022-12-11T05:48:59.585Z,70.50
2022-12-11T05:51:28.381Z,70.50
2022-12-11T05:53:58.061Z,70.50
2022-12-11T05:56:28.343Z,70.60
2022-12-11T05:58:57.379Z,70.60
2022-12-11T06:01:29.094Z,70.50
2022-12-11T06:03:58.044Z,70.40
2022-12-11T06:06:26.877Z,70.20
2022-12-11T06:08:57.001Z,70.20
2022-12-11T06:11:26.387Z,70.10
2022-12-11T06:13:54.683Z,70.20
2022-12-11T06:16:23.618Z,70.20
2022-12-11T06:18:57.155Z,70.30
2022-12-11T06:21:28.722Z,70.50
2022-12-11T06:23:59.549Z,70.40
2022-12-11T06:26:28.248Z,70.40
2022-12-11T06:28:56.753Z,70.50
2022-12-11T06:31:25.037Z,70.60
2022-12-11T06:33:54.612Z,70.70
2022-12-11T06:36:24.409Z,70.70
2022-12-11T06:38:53.009Z,70.80
2022-12-11T06:41:21.313Z,70.90
2022-12-11T06:43:50.626Z,70.80
2022-12-11T06:46:20.736Z,70.90
2022-12-11T06:48:50.452Z,70.90
2022-12-11T06:51:21.931Z,70.80
2022-12-11T06:53:53.214Z,70.70
2022-12-11T06:56:21.588Z,71.10
2022-12-11T06:58:50.319Z,71.20
2022-12-11T07:01:20.674Z,71.30
2022-12-11T07:03:49.185Z,71.40
2022-12-11T07:06:19.477Z,71.50
2022-12-11T07:08:47.741Z,71.50
2022-12-11T07:11:17.940Z,71.70
2022-12-11T07:13:46.533Z,71.70
2022-12-11T07:16:16.605Z,71.80
2022-12-11T07:18:48.524Z,71.90
2022-12-11T07:21:18.951Z,72.10
2022-12-11T07:23:47.911Z,72.10
2022-12-11T07:26:18.353Z,72.20
2022-12-11T07:28:47.358Z,72.30
2022-12-11T07:31:17.141Z,72.20
2022-12-11T07:33:45.358Z,72.20
2022-12-11T07:36:15.631Z,72.20
2022-12-11T07:38:45.751Z,72.20
2022-12-11T07:41:15.450Z,72.30
2022-12-11T07:43:45.331Z,72.30
2022-12-11T07:46:15.148Z,72.30
2022-12-11T07:48:45.914Z,72.40
2022-12-11T07:51:17.366Z,72.40
2022-12-11T07:53:48.985Z,72.40
2022-12-11T07:56:17.937Z,72.50
2022-12-11T07:58:46.902Z,72.30
2022-12-11T08:01:16.752Z,72.20
2022-12-11T08:03:45.056Z,72.20
2022-12-11T08:06:13.920Z,72.10
2022-12-11T08:08:42.788Z,72.10
2022-12-11T08:11:14.158Z,72.10
2022-12-11T08:13:43.287Z,72.10
2022-12-11T08:16:14.784Z,72.30
2022-12-11T08:18:44.155Z,72.30
2022-12-11T08:21:14.612Z,72.30
2022-12-11T08:23:43.230Z,72.30
2022-12-11T08:26:14.962Z,72.80
2022-12-11T08:28:43.096Z,72.10
2022-12-11T08:31:12.420Z,71.90
2022-12-11T08:33:41.693Z,71.80
2022-12-11T08:36:12.450Z,71.80
2022-12-11T08:38:41.664Z,71.80
2022-12-11T08:41:12.405Z,71.90
2022-12-11T08:43:41.248Z,71.90
2022-12-11T08:46:10.512Z,72.10
2022-12-11T08:48:40.572Z,72.10
2022-12-11T08:51:17.821Z,72.00
2022-12-11T08:53:46.060Z,72.00
2022-12-11T08:56:17.808Z,71.80
2022-12-11T08:58:46.881Z,71.70
2022-12-11T09:01:18.504Z,71.60
2022-12-11T09:03:46.732Z,71.60
2022-12-11T09:06:17.371Z,71.60
2022-12-11T09:08:52.183Z,71.40
2022-12-11T09:11:25.675Z,71.20
2022-12-11T09:13:54.251Z,71.30
2022-12-11T09:16:24.999Z,71.30
2022-12-11T09:18:55.514Z,71.30
2022-12-11T09:21:25.822Z,71.40
2022-12-11T09:23:55.501Z,71.30
2022-12-11T09:26:25.779Z,71.50
2022-12-11T09:28:54.818Z,71.60
2022-12-11T09:31:24.887Z,71.60
2022-12-11T09:33:56.340Z,71.70
2022-12-11T09:36:25.104Z,71.50
2022-12-11T09:38:53.742Z,71.50
2022-12-11T09:41:40.487Z,71.30
2022-12-11T09:44:32.504Z,71.20
2022-12-11T09:47:01.342Z,71.30
2022-12-11T09:49:36.193Z,71.30
2022-12-11T09:52:12.417Z,71.40
2022-12-11T09:54:49.023Z,71.40
2022-12-11T09:57:32.591Z,71.50
2022-12-11T10:00:19.840Z,71.40
2022-12-11T10:03:12.190Z,71.40
2022-12-11T10:05:49.133Z,71.30
2022-12-11T10:08:26.896Z,71.20
2022-12-11T10:11:02.223Z,71.10
2022-12-11T10:13:40.782Z,71.30
2022-12-11T10:16:16.600Z,71.20
2022-12-11T10:18:45.548Z,71.20
2022-12-11T10:21:16.388Z,71.20
2022-12-11T10:23:49.517Z,71.20
2022-12-11T10:26:20.308Z,71.30
2022-12-11T10:28:49.953Z,71.30
2022-12-11T10:31:19.978Z,71.20
2022-12-11T10:33:57.066Z,71.20
2022-12-11T10:36:30.255Z,71.20
2022-12-11T10:38:58.687Z,71.20
2022-12-11T10:41:37.750Z,71.20
2022-12-11T10:44:19.018Z,71.20
2022-12-11T10:46:47.441Z,71.30
2022-12-11T10:49:25.002Z,71.30
2022-12-11T10:51:55.082Z,71.20
2022-12-11T10:54:38.058Z,71.20
2022-12-11T10:57:08.347Z,71.40
2022-12-11T10:59:41.807Z,71.40
2022-12-11T11:02:22.511Z,71.30
2022-12-11T11:04:51.671Z,71.50
2022-12-11T11:07:23.657Z,71.50
2022-12-11T11:09:54.250Z,71.50
2022-12-11T11:12:26.162Z,71.40
2022-12-11T11:15:05.981Z,71.40
2022-12-11T11:17:51.256Z,71.30
2022-12-11T11:20:25.042Z,71.20
2022-12-11T11:22:55.880Z,71.90
2022-12-11T11:25:25.743Z,71.10
2022-12-11T11:27:56.757Z,71.20
2022-12-11T11:30:28.545Z,71.20
2022-12-11T11:33:00.644Z,71.10
2022-12-11T11:35:30.961Z,71.10
2022-12-11T11:38:06.785Z,71.10
2022-12-11T11:40:39.478Z,71.00
2022-12-11T11:43:16.658Z,70.80
2022-12-11T11:45:52.698Z,70.80
2022-12-11T11:48:34.018Z,70.70
2022-12-11T11:51:14.579Z,70.50
2022-12-11T11:53:45.456Z,70.50
2022-12-11T11:56:22.241Z,70.30
2022-12-11T11:59:02.131Z,70.10
2022-12-11T12:01:32.284Z,70.10
2022-12-11T12:04:02.632Z,69.90
2022-12-11T12:06:50.891Z,69.80
2022-12-11T12:09:30.116Z,69.60
2022-12-11T12:12:07.338Z,69.80
2022-12-11T12:14:52.002Z,69.50
2022-12-11T12:17:32.436Z,69.40
2022-12-11T12:20:11.512Z,69.20
2022-12-11T12:22:53.967Z,69.20
2022-12-11T12:25:27.967Z,69.20
2022-12-11T12:28:06.719Z,69.10
2022-12-11T12:30:48.071Z,69.10
2022-12-11T12:33:32.113Z,69.10
2022-12-11T12:36:08.589Z,69.00
2022-12-11T12:38:45.363Z,69.10
2022-12-11T12:41:22.006Z,69.00
2022-12-11T12:44:09.173Z,68.90
2022-12-11T12:46:57.092Z,68.80
2022-12-11T12:49:40.214Z,68.80
2022-12-11T12:52:14.819Z,68.80
2022-12-11T12:55:07.503Z,68.80
2022-12-11T12:57:37.243Z,68.70
2022-12-11T13:00:12.541Z,68.60
2022-12-11T13:02:50.179Z,68.60
2022-12-11T13:05:25.164Z,68.50
2022-12-11T13:07:56.661Z,68.20
2022-12-11T13:10:32.897Z,68.00
2022-12-11T13:13:02.404Z,67.80
2022-12-11T13:15:37.188Z,67.80
2022-12-11T13:18:27.639Z,67.90
2022-12-11T13:20:57.384Z,67.90
2022-12-11T13:23:31.098Z,67.90
2022-12-11T13:26:01.534Z,67.80
2022-12-11T13:28:34.481Z,67.80
2022-12-11T13:31:23.650Z,67.70
2022-12-11T13:33:53.613Z,67.50
2022-12-11T13:36:30.300Z,67.40
2022-12-11T13:39:03.118Z,67.20
2022-12-11T13:41:35.031Z,67.20
2022-12-11T13:44:05.614Z,67.10
2022-12-11T13:46:37.588Z,67.70
2022-12-11T13:49:08.463Z,66.90
2022-12-11T13:51:38.096Z,66.90
2022-12-11T13:54:17.093Z,66.70
2022-12-11T13:57:05.077Z,66.60
2022-12-11T13:59:36.281Z,66.60
2022-12-11T14:02:14.086Z,66.60
2022-12-11T14:04:42.900Z,66.50
2022-12-11T14:07:13.393Z,66.40
2022-12-11T14:09:45.135Z,66.40
2022-12-11T14:12:23.287Z,66.30
2022-12-11T14:14:54.944Z,65.90
2022-12-11T14:17:26.170Z,65.90
2022-12-11T14:19:55.528Z,65.90
2022-12-11T14:22:27.566Z,65.90
2022-12-11T14:24:57.885Z,65.80
2022-12-11T14:27:27.746Z,65.80
2022-12-11T14:29:56.388Z,65.70
2022-12-11T14:32:32.373Z,65.70
2022-12-11T14:35:03.053Z,65.50
2022-12-11T14:37:35.369Z,65.40
2022-12-11T14:40:08.045Z,65.40
2022-12-11T14:42:41.895Z,65.40
2022-12-11T14:45:17.760Z,65.40
2022-12-11T14:47:46.297Z,65.40
2022-12-11T14:50:20.427Z,65.30
2022-12-11T14:52:54.172Z,65.20
2022-12-11T14:55:26.087Z,65.20
2022-12-11T14:57:58.137Z,65.20
2022-12-11T15:00:28.761Z,65.20
2022-12-11T15:03:02.706Z,65.10
2022-12-11T15:05:35.735Z,65.10
2022-12-11T15:08:25.004Z,65.20
2022-12-11T15:11:05.082Z,65.20
2022-12-11T15:13:35.729Z,65.20
2022-12-11T15:16:05.828Z,65.20
2022-12-11T15:18:37.627Z,65.20
2022-12-11T15:21:09.955Z,65.20
2022-12-11T15:23:51.244Z,65.20
2022-12-11T15:26:20.165Z,65.20
2022-12-11T15:28:48.699Z,65.20
2022-12-11T15:31:28.492Z,65.40
2022-12-11T15:33:56.760Z,65.60
2022-12-11T15:36:27.152Z,64.90
2022-12-11T15:38:56.730Z,64.80
2022-12-11T15:41:26.221Z,64.80
2022-12-11T15:43:59.118Z,64.90
2022-12-11T15:46:28.047Z,64.90
2022-12-11T15:48:57.357Z,64.80
2022-12-11T15:51:27.391Z,64.80
2022-12-11T15:53:56.976Z,64.80
2022-12-11T15:56:25.281Z,64.90
2022-12-11T15:58:53.619Z,64.90
2022-12-11T16:01:21.991Z,64.80
2022-12-11T16:03:51.290Z,64.90
2022-12-11T16:06:19.617Z,64.80
2022-12-11T16:08:48.029Z,64.80
2022-12-11T16:11:17.794Z,64.80
2022-12-11T16:13:46.029Z,64.80
2022-12-11T16:16:14.262Z,64.80
2022-12-11T16:18:42.566Z,64.80
2022-12-11T16:21:10.862Z,64.80
2022-12-11T16:23:39.023Z,64.70
2022-12-11T16:26:09.545Z,64.70
2022-12-11T16:28:40.444Z,64.50
2022-12-11T16:31:11.949Z,64.40
2022-12-11T16:33:40.273Z,64.40
2022-12-11T16:36:15.526Z,64.40
2022-12-11T16:38:51.443Z,64.40
2022-12-11T16:41:22.788Z,64.50
2022-12-11T16:43:52.895Z,64.30
2022-12-11T16:46:22.819Z,64.40
2022-12-11T16:48:51.386Z,64.40
2022-12-11T16:51:19.652Z,64.40
2022-12-11T16:53:47.930Z,64.50
2022-12-11T16:56:16.185Z,64.50
2022-12-11T16:58:44.372Z,64.30
2022-12-11T17:01:15.147Z,64.30
2022-12-11T17:03:44.092Z,64.30
2022-12-11T17:06:14.641Z,64.20
2022-12-11T17:08:43.230Z,64.30
2022-12-11T17:11:14.327Z,64.30
2022-12-11T17:13:42.891Z,64.30
2022-12-11T17:16:14.443Z,64.30
2022-12-11T17:18:43.163Z,64.20
2022-12-11T17:21:14.201Z,64.40
2022-12-11T17:23:42.706Z,64.30
2022-12-11T17:26:11.094Z,64.30
2022-12-11T17:28:40.219Z,64.30
2022-12-11T17:31:09.856Z,64.40
2022-12-11T17:33:39.751Z,64.40
2022-12-11T17:36:08.982Z,64.50
2022-12-11T17:38:37.276Z,64.50
2022-12-11T17:41:07.311Z,64.50
2022-12-11T17:43:35.702Z,64.40
2022-12-11T17:46:05.126Z,64.50
2022-12-11T17:48:33.823Z,64.50
2022-12-11T17:51:06.475Z,64.60
2022-12-11T17:53:35.746Z,64.70
2022-12-11T17:56:05.711Z,64.80
2022-12-11T17:58:34.808Z,64.90
2022-12-11T18:01:08.379Z,64.90
2022-12-11T18:03:37.977Z,65.00
2022-12-11T18:06:12.612Z,65.00
2022-12-11T18:08:41.944Z,65.10
2022-12-11T18:11:11.897Z,65.10
2022-12-11T18:13:40.606Z,65.10
2022-12-11T18:16:11.537Z,65.20
2022-12-11T18:18:40.079Z,65.20
2022-12-11T18:21:13.292Z,65.90
2022-12-11T18:23:41.636Z,65.20
2022-12-11T18:26:11.109Z,65.20
2022-12-11T18:28:39.294Z,65.20
2022-12-11T18:31:09.538Z,65.20
2022-12-11T18:33:39.041Z,65.20
2022-12-11T18:36:10.316Z,65.10
2022-12-11T18:38:40.143Z,65.20
2022-12-11T18:41:11.116Z,65.30
2022-12-11T18:43:39.480Z,65.30
2022-12-11T18:46:08.300Z,65.30
2022-12-11T18:48:36.952Z,65.30
2022-12-11T18:51:10.089Z,65.40
2022-12-11T18:53:40.088Z,65.50
2022-12-11T18:56:10.945Z,65.50
2022-12-11T18:58:39.218Z,65.50
2022-12-11T19:01:08.875Z,65.60
2022-12-11T19:03:37.646Z,65.60
2022-12-11T19:06:13.314Z,65.70
2022-12-11T19:08:42.125Z,65.70
2022-12-11T19:11:10.607Z,65.80
2022-12-11T19:13:38.770Z,65.80
2022-12-11T19:16:07.505Z,65.80
2022-12-11T19:18:35.778Z,65.70
2022-12-11T19:21:12.622Z,65.60
2022-12-11T19:23:41.414Z,65.70
2022-12-11T19:26:12.327Z,65.70
2022-12-11T19:28:41.373Z,65.70
2022-12-11T19:31:11.221Z,65.80
2022-12-11T19:33:39.521Z,65.70
2022-12-11T19:36:13.643Z,65.80
2022-12-11T19:38:43.957Z,65.70
2022-12-11T19:41:15.751Z,65.80
2022-12-11T19:43:44.216Z,65.80
2022-12-11T19:46:14.385Z,65.70
2022-12-11T19:48:43.374Z,65.60
2022-12-11T19:51:14.937Z,65.50
2022-12-11T19:53:44.645Z,65.50
2022-12-11T19:56:13.490Z,65.30
2022-12-11T19:58:42.225Z,65.30
2022-12-11T20:01:11.183Z,65.30
2022-12-11T20:03:41.348Z,65.30
2022-12-11T20:06:10.191Z,65.30
2022-12-11T20:08:46.965Z,65.40
2022-12-11T20:11:18.647Z,65.50
2022-12-11T20:13:47.642Z,65.50
2022-12-11T20:16:17.503Z,65.50
2022-12-11T20:18:46.634Z,65.50
2022-12-11T20:21:16.723Z,65.60
2022-12-11T20:23:46.959Z,65.60
2022-12-11T20:26:17.876Z,65.50
2022-12-11T20:28:47.902Z,65.60
2022-12-11T20:31:20.438Z,65.60
2022-12-11T20:33:49.690Z,65.60
2022-12-11T20:36:19.615Z,65.60
2022-12-11T20:38:49.833Z,65.50
2022-12-11T20:41:20.720Z,65.60
2022-12-11T20:43:50.057Z,65.70
2022-12-11T20:46:20.213Z,65.70
2022-12-11T20:48:49.174Z,65.70
2022-12-11T20:51:23.977Z,65.70
2022-12-11T20:53:59.062Z,65.70
2022-12-11T20:56:29.856Z,65.80
2022-12-11T20:58:59.955Z,65.80
2022-12-11T21:01:29.933Z,65.70
2022-12-11T21:03:58.772Z,65.70
2022-12-11T21:06:30.805Z,65.70
2022-12-11T21:09:01.852Z,65.70
2022-12-11T21:11:30.293Z,65.70
2022-12-11T21:13:58.624Z,65.80
2022-12-11T21:16:27.338Z,65.80
2022-12-11T21:18:55.948Z,65.90
2022-12-11T21:21:24.610Z,65.90
2022-12-11T21:23:52.832Z,65.90
2022-12-11T21:26:22.683Z,65.90
2022-12-11T21:28:50.949Z,65.90
2022-12-11T21:31:20.835Z,66.00
2022-12-11T21:33:49.268Z,66.00
2022-12-11T21:36:18.152Z,66.00
2022-12-11T21:38:47.532Z,66.00
2022-12-11T21:41:17.895Z,65.90
2022-12-11T21:46:37.349Z,66.00
2022-12-11T21:49:05.580Z,65.90
2022-12-11T21:51:40.272Z,65.90
2022-12-11T21:54:14.749Z,66.00
2022-12-11T21:56:43.233Z,66.00
2022-12-11T21:59:12.755Z,66.10
2022-12-11T22:01:43.748Z,66.20
2022-12-11T22:04:12.763Z,66.30
2022-12-11T22:06:43.514Z,66.40
2022-12-11T22:09:14.693Z,66.40
2022-12-11T22:11:45.074Z,66.40
2022-12-11T22:14:15.765Z,66.50
2022-12-11T22:16:44.532Z,66.50
2022-12-11T22:19:13.434Z,66.40
2022-12-11T22:23:00.363Z,66.40
2022-12-11T22:24:59.274Z,66.40
2022-12-11T22:27:27.635Z,66.40
2022-12-11T22:29:57.233Z,66.40
2022-12-11T22:32:25.503Z,67.00
2022-12-11T22:34:53.866Z,66.40
2022-12-11T22:37:22.176Z,66.50
2022-12-11T22:39:50.520Z,66.60
2022-12-11T22:42:18.859Z,66.70
2022-12-11T22:44:47.119Z,66.90
2022-12-11T22:47:16.799Z,66.90
2022-12-11T22:49:44.983Z,66.90
2022-12-11T22:52:13.230Z,67.00
2022-12-11T22:54:42.636Z,66.90
2022-12-11T22:57:10.970Z,67.00
2022-12-11T22:59:39.107Z,67.10
2022-12-11T23:02:07.666Z,67.10
2022-12-11T23:04:37.338Z,67.20
2022-12-11T23:07:05.549Z,67.20
2022-12-11T23:09:33.812Z,67.20
2022-12-11T23:12:02.560Z,67.20
2022-12-11T23:14:30.784Z,67.20
2022-12-11T23:16:59.010Z,67.50
2022-12-11T23:19:27.602Z,67.30
2022-12-11T23:21:57.293Z,67.40
2022-12-11T23:24:25.614Z,67.50
2022-12-11T23:26:53.867Z,67.50
2022-12-11T23:29:22.081Z,67.50
2022-12-11T23:31:50.308Z,67.50
2022-12-11T23:34:18.562Z,67.50
2022-12-11T23:36:46.787Z,67.70
2022-12-11T23:39:16.365Z,67.60
2022-12-11T23:41:44.721Z,67.60
2022-12-11T23:44:13.249Z,67.40
2022-12-11T23:46:42.582Z,67.30
2022-12-11T23:49:10.824Z,67.10
2022-12-11T23:51:40.053Z,67.10
2022-12-11T23:54:08.359Z,67.00
2022-12-11T23:56:37.991Z,67.00
2022-12-11T23:59:06.158Z,67.00
